createdAt,value
2023-07-30T00:00:15.205Z,100140.14
2023-07-30T00:01:20.944Z,100137.03
2023-07-30T00:02:26.856Z,100139.2
2023-07-30T00:03:32.660Z,100132.98
2023-07-30T00:04:38.528Z,100128.5
2023-07-30T00:05:44.210Z,100131.2
2023-07-30T00:06:49.896Z,100127.47
2023-07-30T00:07:55.741Z,100129.34
2023-07-30T00:09:01.555Z,100132.67
2023-07-30T00:10:07.279Z,100133.58
2023-07-30T00:11:13.111Z,100142.1
2023-07-30T00:12:19.049Z,100145.53
2023-07-30T00:13:24.761Z,100137.62
2023-07-30T00:14:30.510Z,100140.31
2023-07-30T00:15:36.254Z,100138.87
2023-07-30T00:16:42.116Z,100137.53
2023-07-30T00:17:47.927Z,100137.44
2023-07-30T00:18:53.610Z,100136.27
2023-07-30T00:19:59.313Z,100140.76
2023-07-30T00:21:05.074Z,100141.87
2023-07-30T00:22:10.835Z,100140.84
2023-07-30T00:23:16.548Z,100140.44
2023-07-30T00:24:22.222Z,100135.95
2023-07-30T00:25:27.950Z,100142.91
2023-07-30T00:26:33.680Z,100140.53
2023-07-30T00:27:39.886Z,100139.37
2023-07-30T00:28:45.582Z,100145.6
2023-07-30T00:29:51.297Z,100142.5
2023-07-30T00:30:57.131Z,100140.3
2023-07-30T00:32:02.868Z,100142.06
2023-07-30T00:33:08.577Z,100140.83
2023-07-30T00:34:14.213Z,100148.39
2023-07-30T00:35:19.809Z,100144.76
2023-07-30T00:36:25.408Z,100141.25
2023-07-30T00:37:30.964Z,100145.7
2023-07-30T00:38:36.436Z,100149.42
2023-07-30T00:39:42.005Z,100150.36
2023-07-30T00:40:47.567Z,100155.75
2023-07-30T00:41:53.119Z,100151.8
2023-07-30T00:42:58.636Z,100154.9
2023-07-30T00:44:04.267Z,100153.46
2023-07-30T00:45:09.965Z,100155.66
2023-07-30T00:46:15.615Z,100159.47
2023-07-30T00:47:21.187Z,100149.63
2023-07-30T00:48:26.854Z,100150.54
2023-07-30T00:49:32.449Z,100155.11
2023-07-30T00:50:37.991Z,100150.75
2023-07-30T00:51:43.639Z,100163.28
2023-07-30T00:52:49.222Z,100159.77
2023-07-30T00:53:54.852Z,100157.4
2023-07-30T00:55:00.507Z,100159.06
2023-07-30T00:56:06.131Z,100161
2023-07-30T00:57:11.664Z,100158.3
2023-07-30T00:58:17.258Z,100160.09
2023-07-30T00:59:22.897Z,100156.55
2023-07-30T01:00:28.530Z,100154.48
2023-07-30T01:01:34.159Z,100154.8
2023-07-30T01:02:40.669Z,100154.8
2023-07-30T01:03:46.319Z,100153.53
2023-07-30T01:04:51.938Z,100158.3
2023-07-30T01:05:57.525Z,100164.22
2023-07-30T01:07:03.034Z,100163.5
2023-07-30T01:08:08.525Z,100166.07
2023-07-30T01:09:14.021Z,100162.66
2023-07-30T01:10:19.567Z,100159.14
2023-07-30T01:11:25.069Z,100163.06
2023-07-30T01:12:30.554Z,100172.61
2023-07-30T01:13:36.060Z,100166.52
2023-07-30T01:14:41.579Z,100168.98
2023-07-30T01:15:47.115Z,100169.7
2023-07-30T01:16:52.955Z,100171.58
2023-07-30T01:17:58.648Z,100172.08
2023-07-30T01:19:04.222Z,100168.98
2023-07-30T01:20:09.830Z,100166.78
2023-07-30T01:21:15.327Z,100165.03
2023-07-30T01:22:20.916Z,100167.31
2023-07-30T01:23:26.515Z,100165.87
2023-07-30T01:24:32.172Z,100168.04
2023-07-30T01:25:37.985Z,100157.79
2023-07-30T01:26:43.758Z,100164.53
2023-07-30T01:27:49.572Z,100154.46
2023-07-30T01:28:55.347Z,100163.18
2023-07-30T01:30:01.111Z,100154.25
2023-07-30T01:31:07.004Z,100156.86
2023-07-30T01:32:12.848Z,100157.16
2023-07-30T01:33:18.694Z,100162.33
2023-07-30T01:34:24.692Z,100154.78
2023-07-30T01:35:30.521Z,100151.45
2023-07-30T01:36:36.378Z,100155.9
2023-07-30T01:37:42.103Z,100155.69
2023-07-30T01:38:47.809Z,100156.22
2023-07-30T01:39:53.552Z,100161.08
2023-07-30T01:40:59.262Z,100164.21
2023-07-30T01:42:05.046Z,100161.2
2023-07-30T01:43:10.745Z,100165.33
2023-07-30T01:44:16.380Z,100167.17
2023-07-30T01:45:22.058Z,100166.36
2023-07-30T01:46:27.798Z,100170.19
2023-07-30T01:47:33.609Z,100169.46
2023-07-30T01:48:39.535Z,100169.05
2023-07-30T01:49:45.279Z,100175.06
2023-07-30T01:50:51.125Z,100178.39
2023-07-30T01:51:57.028Z,100170.81
2023-07-30T01:53:02.666Z,100179.74
2023-07-30T01:54:08.317Z,100178.27
2023-07-30T01:55:13.934Z,100180.65
2023-07-30T01:56:19.545Z,100176.32
2023-07-30T01:57:25.196Z,100175.47
2023-07-30T01:58:30.780Z,100169.87
2023-07-30T01:59:36.433Z,100179.21
2023-07-30T02:00:42.022Z,100170.19
2023-07-30T02:01:47.710Z,100183.25
2023-07-30T02:02:53.688Z,100177.86
2023-07-30T02:03:59.573Z,100179.21
2023-07-30T02:05:05.447Z,100181.41
2023-07-30T02:06:10.965Z,100181.17
2023-07-30T02:07:16.502Z,100192.69
2023-07-30T02:08:22.043Z,100188.23
2023-07-30T02:09:27.678Z,100198.48
2023-07-30T02:10:33.316Z,100193.09
2023-07-30T02:11:39.247Z,100190.92
2023-07-30T02:12:45.000Z,100196.31
2023-07-30T02:13:50.531Z,100193.21
2023-07-30T02:14:56.080Z,100187.3
2023-07-30T02:16:01.710Z,100185.54
2023-07-30T02:17:07.364Z,100189.67
2023-07-30T02:18:13.352Z,100188.73
2023-07-30T02:19:18.930Z,100185.13
2023-07-30T02:20:24.552Z,100185.54
2023-07-30T02:21:30.159Z,100186.97
2023-07-30T02:22:35.731Z,100193.39
2023-07-30T02:23:41.350Z,100191.31
2023-07-30T02:24:46.983Z,100192.48
2023-07-30T02:25:52.724Z,100185.84
2023-07-30T02:26:58.314Z,100192.58
2023-07-30T02:28:04.022Z,100191.23
2023-07-30T02:29:09.718Z,100190.5
2023-07-30T02:30:15.353Z,100187.81
2023-07-30T02:31:21.042Z,100194.42
2023-07-30T02:32:26.918Z,100198.59
2023-07-30T02:33:32.585Z,100194.72
2023-07-30T02:34:38.155Z,100200.02
2023-07-30T02:35:43.799Z,100200.11
2023-07-30T02:36:49.364Z,100203.66
2023-07-30T02:37:54.945Z,100194.63
2023-07-30T02:39:00.571Z,100199.08
2023-07-30T02:40:06.198Z,100197.73
2023-07-30T02:41:11.763Z,100199.61
2023-07-30T02:42:17.416Z,100196.92
2023-07-30T02:43:22.981Z,100198.77
2023-07-30T02:44:28.537Z,100200.96
2023-07-30T02:45:34.140Z,100201.05
2023-07-30T02:46:39.714Z,100199.7
2023-07-30T02:47:45.497Z,100197.5
2023-07-30T02:48:51.123Z,100198.36
2023-07-30T02:49:56.622Z,100195.89
2023-07-30T02:51:02.128Z,100192.67
2023-07-30T02:52:07.696Z,100194.1
2023-07-30T02:53:13.217Z,100194.1
2023-07-30T02:54:18.800Z,100192.25
2023-07-30T02:55:24.295Z,100195.45
2023-07-30T02:56:29.820Z,100197.64
2023-07-30T02:57:35.307Z,100189.16
2023-07-30T02:58:40.809Z,100195.05
2023-07-30T02:59:46.376Z,100192.67
2023-07-30T03:00:51.956Z,100187.28
2023-07-30T03:01:57.581Z,100188.3
2023-07-30T03:03:03.410Z,100184.8
2023-07-30T03:04:09.174Z,100195.36
2023-07-30T03:05:14.688Z,100191.94
2023-07-30T03:06:20.225Z,100187.48
2023-07-30T03:07:25.725Z,100190.06
2023-07-30T03:08:31.259Z,100192.34
2023-07-30T03:09:36.796Z,100192.03
2023-07-30T03:10:43.319Z,100192.97
2023-07-30T03:11:48.854Z,100192.65
2023-07-30T03:12:54.485Z,100187.67
2023-07-30T03:14:00.052Z,100191.31
2023-07-30T03:15:05.548Z,100191.41
2023-07-30T03:16:11.032Z,100195.89
2023-07-30T03:17:16.560Z,100194.55
2023-07-30T03:18:22.155Z,100195.98
2023-07-30T03:19:27.735Z,100201.98
2023-07-30T03:20:33.334Z,100197.64
2023-07-30T03:21:39.315Z,100201.28
2023-07-30T03:22:45.040Z,100201.87
2023-07-30T03:23:50.665Z,100204.06
2023-07-30T03:24:56.279Z,100204.68
2023-07-30T03:26:01.820Z,100214.2
2023-07-30T03:27:07.439Z,100211.59
2023-07-30T03:28:13.069Z,100211.51
2023-07-30T03:29:18.642Z,100207.96
2023-07-30T03:30:24.220Z,100214.11
2023-07-30T03:31:29.898Z,100211.83
2023-07-30T03:32:35.680Z,100209.22
2023-07-30T03:33:41.327Z,100212.33
2023-07-30T03:34:46.853Z,100211.16
2023-07-30T03:35:52.456Z,100209.63
2023-07-30T03:37:01.332Z,100216.81
2023-07-30T03:38:07.176Z,100220
2023-07-30T03:39:12.742Z,100209.31
2023-07-30T03:40:18.327Z,100212.85
2023-07-30T03:41:23.906Z,100208.23
2023-07-30T03:42:29.483Z,100206.39
2023-07-30T03:43:35.104Z,100208.96
2023-07-30T03:44:40.678Z,100208.96
2023-07-30T03:45:46.233Z,100208.14
2023-07-30T03:46:51.898Z,100210.75
2023-07-30T03:47:57.623Z,100213.53
2023-07-30T03:49:03.181Z,100208.14
2023-07-30T03:50:08.824Z,100211.78
2023-07-30T03:51:14.392Z,100213.53
2023-07-30T03:52:20.136Z,100224.72
2023-07-30T03:53:25.739Z,100224.8
2023-07-30T03:54:31.448Z,100218.07
2023-07-30T03:55:37.142Z,100221.7
2023-07-30T03:56:42.810Z,100223.37
2023-07-30T03:57:48.443Z,100222.78
2023-07-30T03:58:54.073Z,100224.89
2023-07-30T03:59:59.819Z,100227.41
2023-07-30T04:01:05.551Z,100224.72
2023-07-30T04:02:11.240Z,100228.84
2023-07-30T04:03:17.115Z,100228.44
2023-07-30T04:04:22.908Z,100223.27
2023-07-30T04:05:28.516Z,100229.47
2023-07-30T04:06:34.188Z,100233.19
2023-07-30T04:07:42.518Z,100237.64
2023-07-30T04:08:48.220Z,100234.74
2023-07-30T04:09:53.807Z,100235.16
2023-07-30T04:10:59.474Z,100230.38
2023-07-30T04:12:05.076Z,100240.45
2023-07-30T04:13:10.697Z,100234.74
2023-07-30T04:14:16.261Z,100235.56
2023-07-30T04:15:21.902Z,100241.48
2023-07-30T04:16:27.598Z,100242.92
2023-07-30T04:17:33.457Z,100236.59
2023-07-30T04:18:39.098Z,100242.59
2023-07-30T04:19:44.726Z,100241.34
2023-07-30T04:20:50.406Z,100236.8
2023-07-30T04:21:56.049Z,100240.22
2023-07-30T04:23:01.732Z,100247.27
2023-07-30T04:24:07.429Z,100244.49
2023-07-30T04:25:13.170Z,100244.35
2023-07-30T04:26:18.880Z,100250.29
2023-07-30T04:27:24.947Z,100254.13
2023-07-30T04:28:34.138Z,100250.61
2023-07-30T04:29:40.316Z,100255.59
2023-07-30T04:30:46.096Z,100258.16
2023-07-30T04:31:51.889Z,100255.15
2023-07-30T04:32:57.611Z,100257.44
2023-07-30T04:34:03.222Z,100260.22
2023-07-30T04:35:08.884Z,100271.44
2023-07-30T04:36:14.495Z,100262.59
2023-07-30T04:37:20.128Z,100270.59
2023-07-30T04:38:25.680Z,100269.77
2023-07-30T04:39:31.312Z,100278.34
2023-07-30T04:40:36.939Z,100265.41
2023-07-30T04:41:43.080Z,100272.55
2023-07-30T04:42:49.303Z,100271.29
2023-07-30T04:43:54.940Z,100270.87
2023-07-30T04:45:00.597Z,100278.11
2023-07-30T04:46:06.269Z,100277.7
2023-07-30T04:47:11.959Z,100278.96
2023-07-30T04:48:17.539Z,100281.34
2023-07-30T04:49:23.222Z,100286.49
2023-07-30T04:50:28.812Z,100285.29
2023-07-30T04:51:34.453Z,100286.72
2023-07-30T04:52:40.355Z,100291.17
2023-07-30T04:53:45.947Z,100281.25
2023-07-30T04:54:51.568Z,100282.06
2023-07-30T04:55:57.168Z,100287.98
2023-07-30T04:57:02.698Z,100284.84
2023-07-30T04:58:08.222Z,100283.09
2023-07-30T04:59:13.806Z,100281.56
2023-07-30T05:00:19.366Z,100286.63
2023-07-30T05:01:25.044Z,100280.31
2023-07-30T05:02:30.672Z,100289.65
2023-07-30T05:03:36.431Z,100288.19
2023-07-30T05:04:42.054Z,100293.89
2023-07-30T05:05:47.591Z,100289.03
2023-07-30T05:06:53.096Z,100292.66
2023-07-30T05:07:58.664Z,100297.94
2023-07-30T05:09:04.167Z,100292.14
2023-07-30T05:10:09.826Z,100298.46
2023-07-30T05:11:15.410Z,100299.9
2023-07-30T05:12:21.004Z,100298.55
2023-07-30T05:13:27.746Z,100291.41
2023-07-30T05:14:33.392Z,100294.19
2023-07-30T05:15:38.909Z,100300.83
2023-07-30T05:16:44.418Z,100294.19
2023-07-30T05:17:50.048Z,100294.51
2023-07-30T05:18:55.684Z,100285.29
2023-07-30T05:20:01.242Z,100286.11
2023-07-30T05:21:06.815Z,100287.05
2023-07-30T05:22:12.312Z,100291.09
2023-07-30T05:23:18.086Z,100293.87
2023-07-30T05:24:23.645Z,100283.5
2023-07-30T05:25:29.167Z,100289.73
2023-07-30T05:26:34.675Z,100287.05
2023-07-30T05:27:40.255Z,100282.91
2023-07-30T05:28:45.770Z,100284.76
2023-07-30T05:29:51.349Z,100287.45
2023-07-30T05:30:56.866Z,100278.96
2023-07-30T05:32:02.486Z,100280.31
2023-07-30T05:33:08.270Z,100283.94
2023-07-30T05:34:13.830Z,100283.09
2023-07-30T05:35:19.363Z,100284.44
2023-07-30T05:36:24.897Z,100281.83
2023-07-30T05:37:30.397Z,100282.27
2023-07-30T05:38:35.949Z,100282.69
2023-07-30T05:39:41.486Z,100279.67
2023-07-30T05:40:47.005Z,100277.38
2023-07-30T05:41:52.570Z,100286.81
2023-07-30T05:42:58.075Z,100285.38
2023-07-30T05:44:03.587Z,100287.98
2023-07-30T05:45:09.161Z,100290.56
2023-07-30T05:46:14.840Z,100282.16
2023-07-30T05:47:20.659Z,100287.05
2023-07-30T05:48:26.474Z,100281.13
2023-07-30T05:49:32.107Z,100274.07
2023-07-30T05:50:37.702Z,100274.39
2023-07-30T05:51:43.387Z,100272.46
2023-07-30T05:52:49.154Z,100274.83
2023-07-30T05:53:54.980Z,100272.87
2023-07-30T05:55:00.848Z,100273.19
2023-07-30T05:56:06.611Z,100281.27
2023-07-30T05:57:12.513Z,100277.23
2023-07-30T05:58:18.171Z,100280.86
2023-07-30T05:59:25.255Z,100285.72
2023-07-30T06:00:30.952Z,100278.98
2023-07-30T06:01:37.012Z,100273.1
2023-07-30T06:02:43.239Z,100279.3
2023-07-30T06:03:49.072Z,100285.55
2023-07-30T06:04:54.817Z,100274.45
2023-07-30T06:06:00.431Z,100277.25
2023-07-30T06:07:06.130Z,100272.72
2023-07-30T06:08:11.670Z,100279.86
2023-07-30T06:09:17.232Z,100274.82
2023-07-30T06:10:22.968Z,100271.72
2023-07-30T06:11:28.504Z,100272.04
2023-07-30T06:12:34.104Z,100269.84
2023-07-30T06:13:39.657Z,100272.77
2023-07-30T06:14:45.284Z,100273.27
2023-07-30T06:15:50.976Z,100274.94
2023-07-30T06:16:57.076Z,100281.27
2023-07-30T06:18:03.127Z,100276.19
2023-07-30T06:19:09.191Z,100265.95
2023-07-30T06:20:15.096Z,100270.8
2023-07-30T06:21:21.006Z,100261.05
2023-07-30T06:22:27.268Z,100270.72
2023-07-30T06:23:33.056Z,100267.61
2023-07-30T06:24:38.810Z,100262.62
2023-07-30T06:25:44.370Z,100268.02
2023-07-30T06:26:49.949Z,100275.57
2023-07-30T06:27:55.537Z,100273.2
2023-07-30T06:29:01.400Z,100273.2
2023-07-30T06:30:06.958Z,100283.27
2023-07-30T06:31:12.584Z,100285.34
2023-07-30T06:32:18.332Z,100279.05
2023-07-30T06:33:26.317Z,100280.8
2023-07-30T06:34:36.127Z,100283.27
2023-07-30T06:35:41.678Z,100277.06
2023-07-30T06:36:47.256Z,100281.83
2023-07-30T06:37:52.791Z,100275.09
2023-07-30T06:38:58.359Z,100283.09
2023-07-30T06:40:04.086Z,100284.76
2023-07-30T06:41:09.752Z,100291.61
2023-07-30T06:42:15.455Z,100287.24
2023-07-30T06:43:21.190Z,100284.05
2023-07-30T06:44:26.781Z,100283.93
2023-07-30T06:45:32.338Z,100285.19
2023-07-30T06:46:37.974Z,100282
2023-07-30T06:47:43.619Z,100283.44
2023-07-30T06:48:49.153Z,100282
2023-07-30T06:49:54.635Z,100279.8
2023-07-30T06:51:00.222Z,100280.84
2023-07-30T06:52:05.843Z,100282.49
2023-07-30T06:53:11.343Z,100281.88
2023-07-30T06:54:16.886Z,100280.53
2023-07-30T06:55:22.567Z,100281.88
2023-07-30T06:56:28.164Z,100282.72
2023-07-30T06:57:35.130Z,100281.7
2023-07-30T07:00:09.258Z,100283.98
2023-07-30T07:01:14.825Z,100284.3
2023-07-30T07:02:20.604Z,100281.92
2023-07-30T07:03:26.484Z,100290.66
2023-07-30T07:04:32.263Z,100289.19
2023-07-30T07:05:37.807Z,100292.41
2023-07-30T07:06:43.340Z,100287.52
2023-07-30T07:07:49.107Z,100292.92
2023-07-30T07:08:54.646Z,100290.46
2023-07-30T07:10:00.184Z,100290.78
2023-07-30T07:11:05.735Z,100291.81
2023-07-30T07:12:11.345Z,100295.77
2023-07-30T07:13:16.837Z,100300.22
2023-07-30T07:14:22.362Z,100292.04
2023-07-30T07:15:27.886Z,100291.1
2023-07-30T07:16:33.444Z,100294.2
2023-07-30T07:17:39.328Z,100292.98
2023-07-30T07:18:45.053Z,100292.34
2023-07-30T07:19:50.595Z,100293.69
2023-07-30T07:20:56.146Z,100289.48
2023-07-30T07:22:01.766Z,100296.47
2023-07-30T07:23:07.383Z,100298.76
2023-07-30T07:24:14.298Z,100298.64
2023-07-30T07:25:19.859Z,100298.55
2023-07-30T07:26:25.364Z,100302.48
2023-07-30T07:27:30.929Z,100299.55
2023-07-30T07:28:36.513Z,100299.88
2023-07-30T07:29:42.117Z,100297.18
2023-07-30T07:30:47.691Z,100302.8
2023-07-30T07:31:53.250Z,100301.44
2023-07-30T07:32:58.840Z,100300.66
2023-07-30T07:34:04.582Z,100306.66
2023-07-30T07:35:10.112Z,100297.95
2023-07-30T07:36:15.591Z,100308.33
2023-07-30T07:37:21.080Z,100310.61
2023-07-30T07:38:26.581Z,100312.23
2023-07-30T07:39:32.116Z,100311.91
2023-07-30T07:40:37.661Z,100313.32
2023-07-30T07:41:43.139Z,100317.89
2023-07-30T07:42:48.925Z,100313.62
2023-07-30T07:43:54.595Z,100311.09
2023-07-30T07:45:00.118Z,100316.95
2023-07-30T07:46:05.743Z,100322.05
2023-07-30T07:47:11.323Z,100319.23
2023-07-30T07:48:16.906Z,100318.21
2023-07-30T07:49:22.427Z,100327.94
2023-07-30T07:50:27.931Z,100327.09
2023-07-30T07:51:33.593Z,100322
2023-07-30T07:52:39.331Z,100318.57
2023-07-30T07:53:44.851Z,100315.91
2023-07-30T07:54:50.366Z,100321.29
2023-07-30T07:55:55.895Z,100318.39
2023-07-30T07:57:01.447Z,100319.39
2023-07-30T07:58:06.981Z,100319.86
2023-07-30T07:59:12.473Z,100325.92
2023-07-30T08:00:17.979Z,100325.02
2023-07-30T08:01:23.642Z,100325.75
2023-07-30T08:02:29.414Z,100325.25
2023-07-30T08:03:35.160Z,100320.71
2023-07-30T08:04:41.038Z,100317.55
2023-07-30T08:05:46.906Z,100321.59
2023-07-30T08:06:52.449Z,100316.2
2023-07-30T08:07:57.966Z,100314.86
2023-07-30T08:09:03.527Z,100320.45
2023-07-30T08:10:09.021Z,100320.56
2023-07-30T08:11:14.540Z,100321.91
2023-07-30T08:12:20.111Z,100318.34
2023-07-30T08:13:25.632Z,100324.38
2023-07-30T08:14:31.147Z,100318.98
2023-07-30T08:15:36.780Z,100324.38
2023-07-30T08:16:42.480Z,100324.47
2023-07-30T08:17:49.241Z,100324.78
2023-07-30T08:18:54.778Z,100326.05
2023-07-30T08:20:00.328Z,100326.59
2023-07-30T08:21:05.908Z,100323.91
2023-07-30T08:22:11.404Z,100326.45
2023-07-30T08:23:16.930Z,100329.94
2023-07-30T08:24:22.424Z,100321.13
2023-07-30T08:25:28.073Z,100319.48
2023-07-30T08:26:33.634Z,100319.69
2023-07-30T08:27:39.128Z,100317.09
2023-07-30T08:28:44.663Z,100319.14
2023-07-30T08:29:50.175Z,100316.53
2023-07-30T08:30:55.701Z,100315.73
2023-07-30T08:32:01.460Z,100320.48
2023-07-30T08:33:07.326Z,100319.11
2023-07-30T08:34:12.998Z,100315.28
2023-07-30T08:35:18.533Z,100313.31
2023-07-30T08:36:25.407Z,100316.01
2023-07-30T08:37:30.941Z,100318.94
2023-07-30T08:38:36.465Z,100318.75
2023-07-30T08:39:42.003Z,100323.53
2023-07-30T08:40:47.584Z,100316.79
2023-07-30T08:41:53.100Z,100317.02
2023-07-30T08:42:58.750Z,100318.9
2023-07-30T08:44:04.349Z,100322
2023-07-30T08:45:09.886Z,100321.2
2023-07-30T08:46:15.538Z,100319.95
2023-07-30T08:47:21.148Z,100327.86
2023-07-30T08:48:26.867Z,100323.99
2023-07-30T08:49:32.560Z,100317.64
2023-07-30T08:50:38.335Z,100324.78
2023-07-30T08:51:44.092Z,100323.84
2023-07-30T08:52:49.753Z,100322.5
2023-07-30T08:53:55.411Z,100316.86
2023-07-30T08:55:01.091Z,100320.75
2023-07-30T08:56:06.762Z,100314.48
2023-07-30T08:57:12.393Z,100316.91
2023-07-30T08:58:18.152Z,100316.99
2023-07-30T08:59:23.849Z,100315.03
2023-07-30T09:00:29.551Z,100308.94
2023-07-30T09:01:35.583Z,100311.75
2023-07-30T09:02:41.935Z,100307.27
2023-07-30T09:03:47.692Z,100309.88
2023-07-30T09:04:53.405Z,100315.97
2023-07-30T09:05:59.057Z,100301.67
2023-07-30T09:07:04.692Z,100308.11
2023-07-30T09:08:10.393Z,100306.77
2023-07-30T09:09:16.197Z,100307.73
2023-07-30T09:10:21.971Z,100308.75
2023-07-30T09:11:27.885Z,100298.18
2023-07-30T09:12:33.587Z,100302.13
2023-07-30T09:13:39.266Z,100300.67
2023-07-30T09:14:44.852Z,100298
2023-07-30T09:15:50.435Z,100298.7
2023-07-30T09:16:55.961Z,100298.39
2023-07-30T09:18:01.544Z,100298.39
2023-07-30T09:19:07.199Z,100308.84
2023-07-30T09:20:12.688Z,100306.04
2023-07-30T09:21:18.422Z,100308.33
2023-07-30T09:22:23.958Z,100305.84
2023-07-30T09:23:29.525Z,100308.23
2023-07-30T09:24:35.034Z,100306.8
2023-07-30T09:25:40.521Z,100305.09
2023-07-30T09:26:46.046Z,100305.95
2023-07-30T09:27:51.673Z,100306.13
2023-07-30T09:28:57.290Z,100291.39
2023-07-30T09:30:02.824Z,100290.98
2023-07-30T09:31:23.017Z,100298.22
2023-07-30T09:32:28.792Z,100295.03
2023-07-30T09:33:34.345Z,100294.86
2023-07-30T09:34:39.846Z,100296.32
2023-07-30T09:35:45.316Z,100299.83
2023-07-30T09:36:53.760Z,100300.16
2023-07-30T09:37:59.277Z,100302.61
2023-07-30T09:39:04.804Z,100304.95
2023-07-30T09:40:10.316Z,100308.5
2023-07-30T09:41:15.998Z,100313.48
2023-07-30T09:42:21.592Z,100300.56
2023-07-30T09:43:27.220Z,100314.95
2023-07-30T09:44:33.032Z,100309.53
2023-07-30T09:45:38.982Z,100310.7
2023-07-30T09:46:44.748Z,100313.69
2023-07-30T09:47:50.440Z,100308
2023-07-30T09:48:56.086Z,100301.8
2023-07-30T09:50:01.742Z,100305.43
2023-07-30T09:51:07.454Z,100297.84
2023-07-30T09:52:13.025Z,100307.92
2023-07-30T09:53:18.664Z,100304.08
2023-07-30T09:54:24.359Z,100304.81
2023-07-30T09:55:30.157Z,100302.83
2023-07-30T09:56:35.804Z,100300.22
2023-07-30T09:57:41.459Z,100302.83
2023-07-30T09:58:47.158Z,100303.64
2023-07-30T09:59:52.828Z,100313.92
2023-07-30T10:00:58.602Z,100310.61
2023-07-30T10:02:04.393Z,100310.35
2023-07-30T10:03:10.138Z,100305.7
2023-07-30T10:04:15.960Z,100311.52
2023-07-30T10:05:21.641Z,100305.98
2023-07-30T10:06:27.359Z,100311.7
2023-07-30T10:07:33.084Z,100307.05
2023-07-30T10:08:38.783Z,100304.79
2023-07-30T10:09:44.485Z,100298.37
2023-07-30T10:10:50.142Z,100307.19
2023-07-30T10:11:56.548Z,100314.65
2023-07-30T10:13:02.247Z,100311.41
2023-07-30T10:14:07.884Z,100307.69
2023-07-30T10:15:13.661Z,100306.02
2023-07-30T10:16:19.336Z,100301.48
2023-07-30T10:17:25.002Z,100317.62
2023-07-30T10:18:30.648Z,100312.29
2023-07-30T10:19:36.578Z,100309.06
2023-07-30T10:20:42.262Z,100311.44
2023-07-30T10:21:48.010Z,100311.59
2023-07-30T10:22:53.634Z,100308.05
2023-07-30T10:24:03.146Z,100307.08
2023-07-30T10:25:08.924Z,100301.84
2023-07-30T10:26:14.608Z,100307.42
2023-07-30T10:27:20.324Z,100309.09
2023-07-30T10:28:26.229Z,100310.35
2023-07-30T10:29:31.945Z,100298.55
2023-07-30T10:30:37.707Z,100300.75
2023-07-30T10:31:43.407Z,100301.16
2023-07-30T10:32:49.141Z,100305.84
2023-07-30T10:33:54.936Z,100303.47
2023-07-30T10:35:00.710Z,100303.05
2023-07-30T10:36:06.379Z,100294.13
2023-07-30T10:37:12.059Z,100293.08
2023-07-30T10:38:17.706Z,100293.58
2023-07-30T10:39:23.297Z,100296.27
2023-07-30T10:40:28.972Z,100303.77
2023-07-30T10:41:34.833Z,100299.19
2023-07-30T10:42:40.843Z,100291.52
2023-07-30T10:43:46.522Z,100294.03
2023-07-30T10:44:52.288Z,100302.13
2023-07-30T10:45:59.757Z,100297.98
2023-07-30T10:47:05.744Z,100285.25
2023-07-30T10:48:11.680Z,100290.23
2023-07-30T10:49:17.353Z,100294.27
2023-07-30T10:50:22.916Z,100300.06
2023-07-30T10:51:32.818Z,100300.77
2023-07-30T10:52:39.970Z,100292.98
2023-07-30T10:53:45.456Z,100289.06
2023-07-30T10:54:50.959Z,100283.67
2023-07-30T10:55:56.457Z,100281.91
2023-07-30T10:57:02.022Z,100289.78
2023-07-30T10:58:07.589Z,100286.09
2023-07-30T10:59:13.095Z,100282.81
2023-07-30T11:00:18.647Z,100290.38
2023-07-30T11:01:24.428Z,100288.7
2023-07-30T11:02:30.531Z,100292.03
2023-07-30T11:03:36.729Z,100292.66
2023-07-30T11:04:42.498Z,100282.38
2023-07-30T11:05:48.151Z,100282.14
2023-07-30T11:06:53.744Z,100277.52
2023-07-30T11:07:59.414Z,100280.97
2023-07-30T11:09:05.016Z,100272.86
2023-07-30T11:10:10.629Z,100281.98
2023-07-30T11:11:16.215Z,100274.3
2023-07-30T11:12:21.966Z,100268.17
2023-07-30T11:13:27.680Z,100268.5
2023-07-30T11:14:33.334Z,100268.91
2023-07-30T11:15:39.103Z,100274.2
2023-07-30T11:16:44.759Z,100277.3
2023-07-30T11:17:50.570Z,100270.25
2023-07-30T11:18:56.351Z,100262.17
2023-07-30T11:20:02.148Z,100264.63
2023-07-30T11:21:07.791Z,100263.55
2023-07-30T11:22:13.324Z,100264.72
2023-07-30T11:23:18.861Z,100261.31
2023-07-30T11:24:24.395Z,100264.26
2023-07-30T11:25:30.153Z,100251.95
2023-07-30T11:26:35.791Z,100254.24
2023-07-30T11:27:41.374Z,100248.47
2023-07-30T11:28:46.955Z,100251.94
2023-07-30T11:29:52.506Z,100256.63
2023-07-30T11:30:57.990Z,100256.69
2023-07-30T11:32:03.550Z,100252.16
2023-07-30T11:33:09.273Z,100257.42
2023-07-30T11:34:14.850Z,100251.71
2023-07-30T11:35:20.391Z,100256.19
2023-07-30T11:36:25.960Z,100260.23
2023-07-30T11:37:31.508Z,100259.8
2023-07-30T11:38:37.050Z,100264.27
2023-07-30T11:39:45.490Z,100262.08
2023-07-30T11:40:51.103Z,100254
2023-07-30T11:41:56.653Z,100254
2023-07-30T11:43:02.246Z,100252.24
2023-07-30T11:44:07.718Z,100260.41
2023-07-30T11:45:13.217Z,100250.98
2023-07-30T11:46:18.818Z,100247.35
2023-07-30T11:47:24.552Z,100250.48
2023-07-30T11:48:30.160Z,100245.59
2023-07-30T11:49:35.705Z,100245.09
2023-07-30T11:50:41.225Z,100246.12
2023-07-30T11:51:46.733Z,100248.81
2023-07-30T11:52:52.257Z,100248.88
2023-07-30T11:53:57.914Z,100255.55
2023-07-30T11:55:03.566Z,100251.07
2023-07-30T11:56:09.076Z,100243.48
2023-07-30T11:57:14.610Z,100242.98
2023-07-30T11:58:20.154Z,100243.58
2023-07-30T11:59:25.775Z,100247.53
2023-07-30T12:00:31.437Z,100242.32
2023-07-30T12:01:37.995Z,100243.58
2023-07-30T12:02:44.362Z,100243.58
2023-07-30T12:03:50.238Z,100238.72
2023-07-30T12:05:12.751Z,100240.87
2023-07-30T12:06:18.568Z,100236.52
2023-07-30T12:07:24.241Z,100234.45
2023-07-30T12:08:30.057Z,100232.48
2023-07-30T12:09:35.732Z,100228.44
2023-07-30T12:10:41.460Z,100231.66
2023-07-30T12:11:47.201Z,100226.27
2023-07-30T12:15:33.243Z,100232.16
2023-07-30T12:16:39.114Z,100232.16
2023-07-30T12:17:45.036Z,100225.42
2023-07-30T12:18:50.752Z,100223.76
2023-07-30T12:19:56.404Z,100215.36
2023-07-30T12:21:02.086Z,100218.9
2023-07-30T12:22:07.785Z,100216.94
2023-07-30T12:23:13.468Z,100213.83
2023-07-30T12:24:19.082Z,100212.98
2023-07-30T12:25:24.962Z,100218.78
2023-07-30T12:26:30.627Z,100217.88
2023-07-30T12:27:36.260Z,100210.91
2023-07-30T12:28:41.937Z,100213.39
2023-07-30T12:29:47.611Z,100205.11
2023-07-30T12:30:53.232Z,100212.48
2023-07-30T12:32:01.478Z,100199.52
2023-07-30T12:33:09.671Z,100204.28
2023-07-30T12:34:15.351Z,100200.68
2023-07-30T12:35:20.971Z,100194.85
2023-07-30T12:36:26.619Z,100189.05